Byron, Wisconsin
Current Conditions -  °F | °C
As of 9:53 PM on Tuesday 25 Nov 2014 (Local Time) from KFLD Reporting Station
Clear Clear  
Wind Chill:   Ceiling: Unl
Heat Index: 16°   Visibility: 10mi
Dew Point: 13°   Wind: 6mph
Humidity: 88%   Direction: 170°S
Pressure: 30.14"   Gusts: NA
Location:  43.65°N, 88.45°W
Report Text: KFLD 260353Z AUTO 17005KT 10SM CLR M09/M11 A3014 RMK AO2 SLP221 T10891106
Loading
Personal Weather Stations






























Interactive Weather Map New forecast layout! Learn more

10-Day Weather Forecast

Advertisements
Track Severe Weather on mobile